sensor_id;sensor_type;location;lat;lon;timestamp;P1;durP1;ratioP1;P2;durP2;ratioP2
1128;SDS011;553;51.038;7.216;2023-04-01T00:01:08;2.80;;;0.90;;
1128;SDS011;553;51.038;7.216;2023-04-01T00:03:36;1.50;;;0.37;;
1128;SDS011;553;51.038;7.216;2023-04-01T00:06:03;5.57;;;0.70;;
1128;SDS011;553;51.038;7.216;2023-04-01T00:08:30;1.33;;;0.60;;
1128;SDS011;553;51.038;7.216;2023-04-01T00:10:57;1.10;;;0.50;;
1128;SDS011;553;51.038;7.216;2023-04-01T00:13:25;2.80;;;0.93;;
1128;SDS011;553;51.038;7.216;2023-04-01T00:15:52;3.40;;;0.93;;
1128;SDS011;553;51.038;7.216;2023-04-01T00:18:21;2.10;;;0.50;;
1128;SDS011;553;51.038;7.216;2023-04-01T00:20:49;1.70;;;0.53;;
1128;SDS011;553;51.038;7.216;2023-04-01T00:23:17;1.40;;;0.60;;
1128;SDS011;553;51.038;7.216;2023-04-01T00:25:45;2.90;;;0.67;;
1128;SDS011;553;51.038;7.216;2023-04-01T00:28:14;1.43;;;0.30;;
1128;SDS011;553;51.038;7.216;2023-04-01T00:30:42;2.30;;;0.60;;
1128;SDS011;553;51.038;7.216;2023-04-01T00:33:09;1.07;;;0.37;;
1128;SDS011;553;51.038;7.216;2023-04-01T00:35:36;1.13;;;0.40;;
1128;SDS011;553;51.038;7.216;2023-04-01T00:38:03;1.67;;;0.50;;
1128;SDS011;553;51.038;7.216;2023-04-01T00:40:31;1.13;;;0.50;;
1128;SDS011;553;51.038;7.216;2023-04-01T00:43:01;1.63;;;0.50;;
1128;SDS011;553;51.038;7.216;2023-04-01T00:48:05;1.23;;;0.30;;
1128;SDS011;553;51.038;7.216;2023-04-01T00:50:36;2.00;;;0.50;;
1128;SDS011;553;51.038;7.216;2023-04-01T00:53:07;1.17;;;0.40;;
1128;SDS011;553;51.038;7.216;2023-04-01T00:55:35;1.93;;;0.40;;
1128;SDS011;553;51.038;7.216;2023-04-01T00:58:08;1.57;;;0.30;;
1128;SDS011;553;51.038;7.216;2023-04-01T01:00:41;1.80;;;0.30;;
1128;SDS011;553;51.038;7.216;2023-04-01T01:03:08;1.00;;;0.40;;
1128;SDS011;553;51.038;7.216;2023-04-01T01:05:38;3.47;;;0.50;;
1128;SDS011;553;51.038;7.216;2023-04-01T01:11:44;0.90;;;0.30;;
1128;SDS011;553;51.038;7.216;2023-04-01T01:14:30;1.07;;;0.60;;
1128;SDS011;553;51.038;7.216;2023-04-01T01:17:17;0.80;;;0.30;;
1128;SDS011;553;51.038;7.216;2023-04-01T01:31:53;1.27;;;0.30;;
1128;SDS011;553;51.038;7.216;2023-04-01T01:37:20;0.90;;;0.30;;
1128;SDS011;553;51.038;7.216;2023-04-01T01:39:55;3.33;;;0.63;;
1128;SDS011;553;51.038;7.216;2023-04-01T01:42:27;1.03;;;0.30;;
1128;SDS011;553;51.038;7.216;2023-04-01T01:44:57;1.17;;;0.30;;
1128;SDS011;553;51.038;7.216;2023-04-01T01:47:26;1.70;;;0.50;;
1128;SDS011;553;51.038;7.216;2023-04-01T01:49:56;4.13;;;0.30;;
1128;SDS011;553;51.038;7.216;2023-04-01T01:52:23;5.13;;;0.30;;
1128;SDS011;553;51.038;7.216;2023-04-01T01:54:51;4.00;;;0.40;;
1128;SDS011;553;51.038;7.216;2023-04-01T01:57:32;0.70;;;0.40;;
1128;SDS011;553;51.038;7.216;2023-04-01T02:00:06;0.53;;;0.30;;
1128;SDS011;553;51.038;7.216;2023-04-01T02:02:42;3.53;;;0.30;;
1128;SDS011;553;51.038;7.216;2023-04-01T02:05:14;1.77;;;0.30;;
1128;SDS011;553;51.038;7.216;2023-04-01T02:07:46;0.97;;;0.40;;
1128;SDS011;553;51.038;7.216;2023-04-01T02:10:21;0.90;;;0.30;;
1128;SDS011;553;51.038;7.216;2023-04-01T02:12:50;6.67;;;0.97;;
1128;SDS011;553;51.038;7.216;2023-04-01T02:15:19;1.13;;;0.50;;
1128;SDS011;553;51.038;7.216;2023-04-01T02:17:49;3.90;;;0.40;;
1128;SDS011;553;51.038;7.216;2023-04-01T02:20:19;2.30;;;0.50;;
1128;SDS011;553;51.038;7.216;2023-04-01T02:22:52;1.77;;;0.60;;
1128;SDS011;553;51.038;7.216;2023-04-01T02:25:25;1.73;;;0.30;;
1128;SDS011;553;51.038;7.216;2023-04-01T02:27:54;1.67;;;0.30;;
1128;SDS011;553;51.038;7.216;2023-04-01T02:30:24;1.67;;;0.60;;
1128;SDS011;553;51.038;7.216;2023-04-01T02:32:56;3.13;;;0.30;;
1128;SDS011;553;51.038;7.216;2023-04-01T02:35:24;0.63;;;0.23;;
1128;SDS011;553;51.038;7.216;2023-04-01T02:37:52;2.20;;;0.40;;
1128;SDS011;553;51.038;7.216;2023-04-01T02:40:22;3.50;;;0.60;;
1128;SDS011;553;51.038;7.216;2023-04-01T02:42:49;2.20;;;0.30;;
1128;SDS011;553;51.038;7.216;2023-04-01T02:45:16;2.40;;;0.30;;
1128;SDS011;553;51.038;7.216;2023-04-01T02:47:43;1.80;;;0.40;;
1128;SDS011;553;51.038;7.216;2023-04-01T02:50:09;0.93;;;0.30;;
1128;SDS011;553;51.038;7.216;2023-04-01T02:52:37;0.70;;;0.40;;
1128;SDS011;553;51.038;7.216;2023-04-01T02:55:04;3.37;;;0.43;;
1128;SDS011;553;51.038;7.216;2023-04-01T02:57:32;2.77;;;0.70;;
1128;SDS011;553;51.038;7.216;2023-04-01T02:59:58;1.00;;;0.40;;
1128;SDS011;553;51.038;7.216;2023-04-01T03:02:25;0.87;;;0.30;;
1128;SDS011;553;51.038;7.216;2023-04-01T03:04:53;1.43;;;0.40;;
1128;SDS011;553;51.038;7.216;2023-04-01T03:07:20;0.80;;;0.20;;
1128;SDS011;553;51.038;7.216;2023-04-01T03:09:47;2.73;;;0.40;;
1128;SDS011;553;51.038;7.216;2023-04-01T03:12:14;1.40;;;0.40;;
1128;SDS011;553;51.038;7.216;2023-04-01T03:14:48;4.30;;;1.07;;
1128;SDS011;553;51.038;7.216;2023-04-01T03:17:15;2.00;;;0.40;;
1128;SDS011;553;51.038;7.216;2023-04-01T03:19:42;0.50;;;0.30;;
1128;SDS011;553;51.038;7.216;2023-04-01T03:22:10;1.33;;;0.47;;
1128;SDS011;553;51.038;7.216;2023-04-01T03:24:37;1.30;;;0.30;;
1128;SDS011;553;51.038;7.216;2023-04-01T03:27:04;1.37;;;0.20;;
1128;SDS011;553;51.038;7.216;2023-04-01T03:29:30;0.80;;;0.23;;
1128;SDS011;553;51.038;7.216;2023-04-01T03:31:57;0.87;;;0.70;;
1128;SDS011;553;51.038;7.216;2023-04-01T03:34:25;0.60;;;0.20;;
1128;SDS011;553;51.038;7.216;2023-04-01T03:36:52;1.33;;;0.30;;
1128;SDS011;553;51.038;7.216;2023-04-01T03:39:19;3.50;;;0.30;;
1128;SDS011;553;51.038;7.216;2023-04-01T03:41:46;0.50;;;0.30;;
1128;SDS011;553;51.038;7.216;2023-04-01T03:44:14;1.17;;;0.40;;
1128;SDS011;553;51.038;7.216;2023-04-01T03:46:41;1.37;;;0.30;;
1128;SDS011;553;51.038;7.216;2023-04-01T03:49:08;1.90;;;0.40;;
1128;SDS011;553;51.038;7.216;2023-04-01T03:51:38;0.50;;;0.30;;
1128;SDS011;553;51.038;7.216;2023-04-01T03:54:06;1.20;;;0.43;;
1128;SDS011;553;51.038;7.216;2023-04-01T03:56:34;1.80;;;0.20;;
1128;SDS011;553;51.038;7.216;2023-04-01T03:59:02;1.53;;;0.40;;
1128;SDS011;553;51.038;7.216;2023-04-01T04:01:31;1.67;;;0.57;;
1128;SDS011;553;51.038;7.216;2023-04-01T04:03:58;1.20;;;0.40;;
1128;SDS011;553;51.038;7.216;2023-04-01T04:06:26;1.23;;;0.20;;
1128;SDS011;553;51.038;7.216;2023-04-01T04:08:54;2.70;;;0.50;;
1128;SDS011;553;51.038;7.216;2023-04-01T04:11:21;2.00;;;0.40;;
1128;SDS011;553;51.038;7.216;2023-04-01T04:13:50;0.40;;;0.30;;
1128;SDS011;553;51.038;7.216;2023-04-01T04:16:19;0.83;;;0.20;;
1128;SDS011;553;51.038;7.216;2023-04-01T04:18:52;3.33;;;0.43;;
1128;SDS011;553;51.038;7.216;2023-04-01T04:21:19;1.30;;;0.30;;
1128;SDS011;553;51.038;7.216;2023-04-01T04:23:45;0.70;;;0.30;;
1128;SDS011;553;51.038;7.216;2023-04-01T04:26:15;1.57;;;0.37;;
1128;SDS011;553;51.038;7.216;2023-04-01T04:28:46;1.00;;;0.30;;
1128;SDS011;553;51.038;7.216;2023-04-01T04:31:18;0.60;;;0.40;;
1128;SDS011;553;51.038;7.216;2023-04-01T04:33:47;1.40;;;0.40;;
1128;SDS011;553;51.038;7.216;2023-04-01T04:36:15;1.37;;;0.33;;
1128;SDS011;553;51.038;7.216;2023-04-01T04:38:42;1.40;;;0.60;;
1128;SDS011;553;51.038;7.216;2023-04-01T04:41:12;2.20;;;0.30;;
1128;SDS011;553;51.038;7.216;2023-04-01T04:43:48;0.80;;;0.60;;
1128;SDS011;553;51.038;7.216;2023-04-01T04:46:17;2.20;;;0.60;;
1128;SDS011;553;51.038;7.216;2023-04-01T04:48:45;2.00;;;0.90;;
1128;SDS011;553;51.038;7.216;2023-04-01T04:51:15;0.80;;;0.40;;
1128;SDS011;553;51.038;7.216;2023-04-01T04:53:43;1.13;;;0.63;;
1128;SDS011;553;51.038;7.216;2023-04-01T04:56:10;1.70;;;0.37;;
1128;SDS011;553;51.038;7.216;2023-04-01T04:58:50;2.00;;;0.50;;
1128;SDS011;553;51.038;7.216;2023-04-01T05:01:21;0.60;;;0.30;;
1128;SDS011;553;51.038;7.216;2023-04-01T05:03:48;0.70;;;0.33;;
1128;SDS011;553;51.038;7.216;2023-04-01T05:06:15;0.70;;;0.30;;
1128;SDS011;553;51.038;7.216;2023-04-01T05:08:42;0.80;;;0.50;;
1128;SDS011;553;51.038;7.216;2023-04-01T05:11:12;1.00;;;0.40;;
1128;SDS011;553;51.038;7.216;2023-04-01T05:13:42;1.20;;;0.30;;
1128;SDS011;553;51.038;7.216;2023-04-01T05:16:10;0.40;;;0.27;;
1128;SDS011;553;51.038;7.216;2023-04-01T05:18:38;0.93;;;0.30;;
1128;SDS011;553;51.038;7.216;2023-04-01T05:21:06;0.50;;;0.30;;
1128;SDS011;553;51.038;7.216;2023-04-01T05:23:34;0.83;;;0.40;;
1128;SDS011;553;51.038;7.216;2023-04-01T05:26:05;1.30;;;0.63;;
1128;SDS011;553;51.038;7.216;2023-04-01T05:28:33;1.33;;;0.67;;
1128;SDS011;553;51.038;7.216;2023-04-01T05:30:59;1.30;;;1.13;;
1128;SDS011;553;51.038;7.216;2023-04-01T05:33:33;2.80;;;0.47;;
1128;SDS011;553;51.038;7.216;2023-04-01T05:36:08;1.00;;;0.50;;
1128;SDS011;553;51.038;7.216;2023-04-01T05:38:36;1.00;;;0.60;;
1128;SDS011;553;51.038;7.216;2023-04-01T05:41:06;1.33;;;0.50;;
1128;SDS011;553;51.038;7.216;2023-04-01T05:43:38;1.70;;;0.80;;
1128;SDS011;553;51.038;7.216;2023-04-01T05:46:26;1.13;;;0.60;;
1128;SDS011;553;51.038;7.216;2023-04-01T05:48:58;2.30;;;1.10;;
1128;SDS011;553;51.038;7.216;2023-04-01T05:51:26;1.40;;;1.00;;
1128;SDS011;553;51.038;7.216;2023-04-01T05:53:52;1.43;;;0.60;;
1128;SDS011;553;51.038;7.216;2023-04-01T05:56:19;1.70;;;0.60;;
1128;SDS011;553;51.038;7.216;2023-04-01T05:58:53;0.90;;;0.60;;
1128;SDS011;553;51.038;7.216;2023-04-01T06:01:22;6.20;;;1.40;;
1128;SDS011;553;51.038;7.216;2023-04-01T06:03:49;1.70;;;0.70;;
1128;SDS011;553;51.038;7.216;2023-04-01T06:06:23;2.17;;;0.80;;
1128;SDS011;553;51.038;7.216;2023-04-01T06:08:55;1.77;;;1.27;;
1128;SDS011;553;51.038;7.216;2023-04-01T06:14:07;3.73;;;1.60;;
1128;SDS011;553;51.038;7.216;2023-04-01T06:16:46;3.47;;;2.27;;
1128;SDS011;553;51.038;7.216;2023-04-01T06:19:24;2.30;;;2.10;;
1128;SDS011;553;51.038;7.216;2023-04-01T06:22:27;3.07;;;2.50;;
1128;SDS011;553;51.038;7.216;2023-04-01T06:25:12;3.03;;;2.47;;
1128;SDS011;553;51.038;7.216;2023-04-01T06:36:08;4.07;;;3.20;;
1128;SDS011;553;51.038;7.216;2023-04-01T06:54:26;3.77;;;3.37;;
1128;SDS011;553;51.038;7.216;2023-04-01T06:57:19;4.23;;;3.20;;
1128;SDS011;553;51.038;7.216;2023-04-01T07:00:52;4.60;;;3.93;;
1128;SDS011;553;51.038;7.216;2023-04-01T07:03:07;5.60;;;4.03;;
1128;SDS011;553;51.038;7.216;2023-04-01T07:05:44;5.53;;;3.80;;
1128;SDS011;553;51.038;7.216;2023-04-01T07:08:16;4.67;;;3.77;;
1128;SDS011;553;51.038;7.216;2023-04-01T07:10:50;5.17;;;4.00;;
1128;SDS011;553;51.038;7.216;2023-04-01T07:16:46;4.90;;;3.07;;
1128;SDS011;553;51.038;7.216;2023-04-01T07:22:05;3.47;;;3.03;;
1128;SDS011;553;51.038;7.216;2023-04-01T07:27:52;3.50;;;2.90;;
1128;SDS011;553;51.038;7.216;2023-04-01T07:30:23;3.27;;;2.83;;
1128;SDS011;553;51.038;7.216;2023-04-01T07:33:04;4.27;;;2.70;;
1128;SDS011;553;51.038;7.216;2023-04-01T07:35:47;3.70;;;2.60;;
1128;SDS011;553;51.038;7.216;2023-04-01T07:46:53;2.10;;;1.67;;
1128;SDS011;553;51.038;7.216;2023-04-01T07:49:41;3.40;;;2.57;;
1128;SDS011;553;51.038;7.216;2023-04-01T07:52:19;4.27;;;3.10;;
1128;SDS011;553;51.038;7.216;2023-04-01T07:55:06;4.00;;;3.03;;
1128;SDS011;553;51.038;7.216;2023-04-01T07:58:04;3.97;;;2.67;;
1128;SDS011;553;51.038;7.216;2023-04-01T08:00:55;3.93;;;2.80;;
1128;SDS011;553;51.038;7.216;2023-04-01T08:21:51;3.33;;;2.50;;
1128;SDS011;553;51.038;7.216;2023-04-01T08:24:35;7.20;;;2.97;;
1128;SDS011;553;51.038;7.216;2023-04-01T08:27:21;2.50;;;2.30;;
1128;SDS011;553;51.038;7.216;2023-04-01T08:32:41;2.90;;;2.43;;
1128;SDS011;553;51.038;7.216;2023-04-01T08:35:26;2.80;;;2.40;;
1128;SDS011;553;51.038;7.216;2023-04-01T08:38:01;3.50;;;2.53;;
1128;SDS011;553;51.038;7.216;2023-04-01T08:40:39;4.17;;;2.60;;
1128;SDS011;553;51.038;7.216;2023-04-01T08:43:16;2.37;;;2.13;;
1128;SDS011;553;51.038;7.216;2023-04-01T08:51:36;3.63;;;2.37;;
1128;SDS011;553;51.038;7.216;2023-04-01T08:57:14;2.60;;;2.40;;
1128;SDS011;553;51.038;7.216;2023-04-01T09:00:21;3.00;;;2.17;;
1128;SDS011;553;51.038;7.216;2023-04-01T09:03:34;3.13;;;1.80;;
1128;SDS011;553;51.038;7.216;2023-04-01T09:06:22;2.20;;;1.63;;
1128;SDS011;553;51.038;7.216;2023-04-01T09:11:53;2.27;;;2.07;;
1128;SDS011;553;51.038;7.216;2023-04-01T09:14:50;2.83;;;2.60;;
1128;SDS011;553;51.038;7.216;2023-04-01T09:23:10;2.00;;;1.67;;
1128;SDS011;553;51.038;7.216;2023-04-01T09:28:18;2.70;;;2.50;;
1128;SDS011;553;51.038;7.216;2023-04-01T09:34:20;4.57;;;2.40;;
1128;SDS011;553;51.038;7.216;2023-04-01T09:39:50;3.33;;;2.70;;
1128;SDS011;553;51.038;7.216;2023-04-01T09:45:40;3.20;;;2.80;;
1128;SDS011;553;51.038;7.216;2023-04-01T09:48:35;3.73;;;3.00;;
1128;SDS011;553;51.038;7.216;2023-04-01T09:54:04;4.30;;;3.60;;
1128;SDS011;553;51.038;7.216;2023-04-01T10:14:07;4.93;;;3.90;;
1128;SDS011;553;51.038;7.216;2023-04-01T10:19:52;5.70;;;4.20;;
1128;SDS011;553;51.038;7.216;2023-04-01T10:22:35;4.37;;;3.93;;
1128;SDS011;553;51.038;7.216;2023-04-01T10:28:25;5.43;;;4.90;;
1128;SDS011;553;51.038;7.216;2023-04-01T10:31:18;6.80;;;4.87;;
1128;SDS011;553;51.038;7.216;2023-04-01T10:43:05;6.27;;;5.10;;
1128;SDS011;553;51.038;7.216;2023-04-01T10:46:18;5.27;;;4.77;;
1128;SDS011;553;51.038;7.216;2023-04-01T10:49:28;6.73;;;5.47;;
1128;SDS011;553;51.038;7.216;2023-04-01T10:52:30;6.90;;;4.90;;
1128;SDS011;553;51.038;7.216;2023-04-01T10:58:49;4.63;;;4.07;;
1128;SDS011;553;51.038;7.216;2023-04-01T11:23:08;6.20;;;4.80;;
1128;SDS011;553;51.038;7.216;2023-04-01T11:34:13;8.30;;;6.37;;
1128;SDS011;553;51.038;7.216;2023-04-01T11:46:04;15.60;;;13.77;;
1128;SDS011;553;51.038;7.216;2023-04-01T11:48:45;9.33;;;7.27;;
1128;SDS011;553;51.038;7.216;2023-04-01T11:51:19;15.23;;;11.30;;
1128;SDS011;553;51.038;7.216;2023-04-01T11:54:17;11.70;;;9.50;;
1128;SDS011;553;51.038;7.216;2023-04-01T11:56:53;11.03;;;8.13;;
1128;SDS011;553;51.038;7.216;2023-04-01T12:02:48;15.07;;;11.80;;
1128;SDS011;553;51.038;7.216;2023-04-01T12:05:41;10.20;;;8.10;;
1128;SDS011;553;51.038;7.216;2023-04-01T12:08:37;10.40;;;8.57;;
1128;SDS011;553;51.038;7.216;2023-04-01T12:14:13;11.37;;;10.17;;
1128;SDS011;553;51.038;7.216;2023-04-01T12:19:42;8.00;;;6.47;;
1128;SDS011;553;51.038;7.216;2023-04-01T12:30:39;8.17;;;6.27;;
1128;SDS011;553;51.038;7.216;2023-04-01T12:41:53;8.40;;;6.40;;
1128;SDS011;553;51.038;7.216;2023-04-01T12:44:51;8.30;;;6.07;;
1128;SDS011;553;51.038;7.216;2023-04-01T12:47:42;4.57;;;3.83;;
1128;SDS011;553;51.038;7.216;2023-04-01T12:56:28;6.07;;;4.77;;
1128;SDS011;553;51.038;7.216;2023-04-01T12:59:22;5.00;;;4.40;;
1128;SDS011;553;51.038;7.216;2023-04-01T13:04:51;6.20;;;4.80;;
1128;SDS011;553;51.038;7.216;2023-04-01T13:15:55;6.80;;;5.60;;
1128;SDS011;553;51.038;7.216;2023-04-01T13:27:18;5.50;;;5.00;;
1128;SDS011;553;51.038;7.216;2023-04-01T13:32:56;6.43;;;5.20;;
1128;SDS011;553;51.038;7.216;2023-04-01T13:38:32;6.43;;;5.30;;
1128;SDS011;553;51.038;7.216;2023-04-01T13:44:00;6.57;;;5.83;;
1128;SDS011;553;51.038;7.216;2023-04-01T13:46:42;8.13;;;6.43;;
1128;SDS011;553;51.038;7.216;2023-04-01T14:02:51;10.47;;;9.37;;
1128;SDS011;553;51.038;7.216;2023-04-01T14:11:30;7.97;;;6.60;;
1128;SDS011;553;51.038;7.216;2023-04-01T14:14:12;8.13;;;6.50;;
1128;SDS011;553;51.038;7.216;2023-04-01T14:20:07;10.63;;;8.03;;
1128;SDS011;553;51.038;7.216;2023-04-01T14:23:07;9.43;;;7.00;;
1128;SDS011;553;51.038;7.216;2023-04-01T14:26:13;10.80;;;7.70;;
1128;SDS011;553;51.038;7.216;2023-04-01T14:29:07;11.40;;;8.33;;
1128;SDS011;553;51.038;7.216;2023-04-01T14:31:44;11.40;;;7.77;;
1128;SDS011;553;51.038;7.216;2023-04-01T14:40:04;8.17;;;6.80;;
1128;SDS011;553;51.038;7.216;2023-04-01T14:42:54;11.43;;;9.07;;
1128;SDS011;553;51.038;7.216;2023-04-01T14:51:16;11.23;;;8.70;;
1128;SDS011;553;51.038;7.216;2023-04-01T14:54:02;10.17;;;8.90;;
1128;SDS011;553;51.038;7.216;2023-04-01T14:56:44;11.17;;;8.30;;
1128;SDS011;553;51.038;7.216;2023-04-01T14:59:25;11.90;;;9.47;;
1128;SDS011;553;51.038;7.216;2023-04-01T15:01:56;10.50;;;8.20;;
1128;SDS011;553;51.038;7.216;2023-04-01T15:15:59;10.13;;;7.20;;
1128;SDS011;553;51.038;7.216;2023-04-01T15:18:41;8.43;;;6.40;;
1128;SDS011;553;51.038;7.216;2023-04-01T15:24:20;9.90;;;7.80;;
1128;SDS011;553;51.038;7.216;2023-04-01T15:26:58;11.07;;;7.40;;
1128;SDS011;553;51.038;7.216;2023-04-01T15:32:48;12.50;;;8.53;;
1128;SDS011;553;51.038;7.216;2023-04-01T15:38:21;11.33;;;8.77;;
1128;SDS011;553;51.038;7.216;2023-04-01T15:44:24;12.10;;;8.77;;
1128;SDS011;553;51.038;7.216;2023-04-01T15:47:58;9.63;;;8.07;;
1128;SDS011;553;51.038;7.216;2023-04-01T15:55:48;13.30;;;11.70;;
1128;SDS011;553;51.038;7.216;2023-04-01T15:58:30;16.27;;;11.70;;
1128;SDS011;553;51.038;7.216;2023-04-01T16:01:43;11.87;;;8.90;;
1128;SDS011;553;51.038;7.216;2023-04-01T16:10:04;11.30;;;8.03;;
1128;SDS011;553;51.038;7.216;2023-04-01T16:13:03;10.43;;;8.53;;
1128;SDS011;553;51.038;7.216;2023-04-01T16:16:06;9.93;;;7.23;;
1128;SDS011;553;51.038;7.216;2023-04-01T16:18:59;8.97;;;6.73;;
1128;SDS011;553;51.038;7.216;2023-04-01T16:24:31;12.90;;;8.53;;
1128;SDS011;553;51.038;7.216;2023-04-01T16:29:56;12.67;;;8.50;;
1128;SDS011;553;51.038;7.216;2023-04-01T16:32:41;14.73;;;10.00;;
1128;SDS011;553;51.038;7.216;2023-04-01T16:35:23;16.53;;;9.30;;
1128;SDS011;553;51.038;7.216;2023-04-01T16:38:15;12.40;;;8.60;;
1128;SDS011;553;51.038;7.216;2023-04-01T16:54:19;18.57;;;12.63;;
1128;SDS011;553;51.038;7.216;2023-04-01T16:59:36;16.97;;;12.20;;
1128;SDS011;553;51.038;7.216;2023-04-01T17:02:13;15.90;;;10.37;;
1128;SDS011;553;51.038;7.216;2023-04-01T17:13:12;14.40;;;8.97;;
1128;SDS011;553;51.038;7.216;2023-04-01T17:27:47;19.17;;;14.07;;
1128;SDS011;553;51.038;7.216;2023-04-01T17:36:01;17.67;;;13.17;;
1128;SDS011;553;51.038;7.216;2023-04-01T17:38:59;17.93;;;13.07;;
1128;SDS011;553;51.038;7.216;2023-04-01T17:41:48;15.80;;;11.63;;
1128;SDS011;553;51.038;7.216;2023-04-01T17:47:24;31.03;;;22.50;;
1128;SDS011;553;51.038;7.216;2023-04-01T17:50:02;18.30;;;12.30;;
1128;SDS011;553;51.038;7.216;2023-04-01T18:04:01;14.57;;;11.77;;
1128;SDS011;553;51.038;7.216;2023-04-01T18:12:32;17.90;;;13.20;;
1128;SDS011;553;51.038;7.216;2023-04-01T18:15:19;17.40;;;13.80;;
1128;SDS011;553;51.038;7.216;2023-04-01T18:18:02;19.73;;;10.63;;
1128;SDS011;553;51.038;7.216;2023-04-01T18:23:34;14.43;;;11.50;;
1128;SDS011;553;51.038;7.216;2023-04-01T18:28:56;15.37;;;11.50;;
1128;SDS011;553;51.038;7.216;2023-04-01T18:31:38;14.43;;;11.30;;
1128;SDS011;553;51.038;7.216;2023-04-01T18:34:16;14.50;;;10.67;;
1128;SDS011;553;51.038;7.216;2023-04-01T18:37:19;14.27;;;11.70;;
1128;SDS011;553;51.038;7.216;2023-04-01T18:39:52;17.60;;;13.17;;
1128;SDS011;553;51.038;7.216;2023-04-01T18:42:31;17.37;;;12.97;;
1128;SDS011;553;51.038;7.216;2023-04-01T18:45:14;13.20;;;10.03;;
1128;SDS011;553;51.038;7.216;2023-04-01T18:50:43;15.07;;;10.97;;
1128;SDS011;553;51.038;7.216;2023-04-01T18:55:46;14.60;;;11.23;;
1128;SDS011;553;51.038;7.216;2023-04-01T18:58:27;12.70;;;10.17;;
1128;SDS011;553;51.038;7.216;2023-04-01T19:06:59;30.97;;;24.87;;
1128;SDS011;553;51.038;7.216;2023-04-01T19:09:32;27.33;;;23.03;;
1128;SDS011;553;51.038;7.216;2023-04-01T19:15:29;30.23;;;23.53;;
1128;SDS011;553;51.038;7.216;2023-04-01T19:17:54;31.70;;;25.50;;
1128;SDS011;553;51.038;7.216;2023-04-01T19:26:24;20.30;;;15.50;;
1128;SDS011;553;51.038;7.216;2023-04-01T19:37:27;19.27;;;13.80;;
1128;SDS011;553;51.038;7.216;2023-04-01T19:40:10;19.67;;;14.13;;
1128;SDS011;553;51.038;7.216;2023-04-01T19:50:56;15.67;;;12.30;;
1128;SDS011;553;51.038;7.216;2023-04-01T19:53:37;20.87;;;14.60;;
1128;SDS011;553;51.038;7.216;2023-04-01T19:56:24;18.63;;;13.13;;
1128;SDS011;553;51.038;7.216;2023-04-01T19:59:08;16.00;;;11.40;;
1128;SDS011;553;51.038;7.216;2023-04-01T20:01:49;16.77;;;11.47;;
1128;SDS011;553;51.038;7.216;2023-04-01T20:04:29;15.30;;;11.50;;
1128;SDS011;553;51.038;7.216;2023-04-01T20:27:44;12.10;;;10.17;;
1128;SDS011;553;51.038;7.216;2023-04-01T20:36:05;22.00;;;15.33;;
1128;SDS011;553;51.038;7.216;2023-04-01T20:41:26;16.20;;;11.87;;
1128;SDS011;553;51.038;7.216;2023-04-01T20:44:06;19.23;;;14.20;;
1128;SDS011;553;51.038;7.216;2023-04-01T20:54:44;13.00;;;10.53;;
1128;SDS011;553;51.038;7.216;2023-04-01T20:57:16;14.70;;;10.73;;
1128;SDS011;553;51.038;7.216;2023-04-01T21:06:04;13.63;;;9.67;;
1128;SDS011;553;51.038;7.216;2023-04-01T21:14:28;16.00;;;11.30;;
1128;SDS011;553;51.038;7.216;2023-04-01T21:20:33;13.63;;;9.90;;
1128;SDS011;553;51.038;7.216;2023-04-01T21:31:38;16.07;;;11.50;;
1128;SDS011;553;51.038;7.216;2023-04-01T21:42:57;16.90;;;12.40;;
1128;SDS011;553;51.038;7.216;2023-04-01T21:51:03;17.27;;;11.67;;
1128;SDS011;553;51.038;7.216;2023-04-01T21:59:46;16.20;;;11.00;;
1128;SDS011;553;51.038;7.216;2023-04-01T22:02:37;16.90;;;11.80;;
1128;SDS011;553;51.038;7.216;2023-04-01T22:05:24;18.50;;;12.37;;
1128;SDS011;553;51.038;7.216;2023-04-01T22:10:36;22.33;;;13.63;;
1128;SDS011;553;51.038;7.216;2023-04-01T22:13:20;21.47;;;14.43;;
1128;SDS011;553;51.038;7.216;2023-04-01T22:21:31;19.00;;;12.60;;
1128;SDS011;553;51.038;7.216;2023-04-01T22:26:40;18.97;;;13.60;;
1128;SDS011;553;51.038;7.216;2023-04-01T22:29:23;18.33;;;12.40;;
1128;SDS011;553;51.038;7.216;2023-04-01T22:32:05;18.00;;;12.03;;
1128;SDS011;553;51.038;7.216;2023-04-01T22:37:42;21.87;;;13.77;;
1128;SDS011;553;51.038;7.216;2023-04-01T22:40:42;21.60;;;13.80;;
1128;SDS011;553;51.038;7.216;2023-04-01T22:43:11;20.63;;;13.90;;
1128;SDS011;553;51.038;7.216;2023-04-01T22:46:00;24.73;;;14.43;;
1128;SDS011;553;51.038;7.216;2023-04-01T22:51:18;24.30;;;14.37;;
1128;SDS011;553;51.038;7.216;2023-04-01T22:56:23;18.60;;;12.20;;
1128;SDS011;553;51.038;7.216;2023-04-01T23:01:36;20.77;;;13.40;;
1128;SDS011;553;51.038;7.216;2023-04-01T23:04:14;19.70;;;13.10;;
1128;SDS011;553;51.038;7.216;2023-04-01T23:06:48;19.47;;;13.10;;
1128;SDS011;553;51.038;7.216;2023-04-01T23:09:19;18.53;;;13.30;;
1128;SDS011;553;51.038;7.216;2023-04-01T23:12:00;19.17;;;13.07;;
1128;SDS011;553;51.038;7.216;2023-04-01T23:14:32;14.50;;;10.37;;
1128;SDS011;553;51.038;7.216;2023-04-01T23:18:01;16.60;;;12.60;;
1128;SDS011;553;51.038;7.216;2023-04-01T23:28:24;18.40;;;12.97;;
1128;SDS011;553;51.038;7.216;2023-04-01T23:31:13;16.40;;;11.87;;
1128;SDS011;553;51.038;7.216;2023-04-01T23:36:30;16.50;;;12.17;;
1128;SDS011;553;51.038;7.216;2023-04-01T23:39:05;19.60;;;12.33;;
1128;SDS011;553;51.038;7.216;2023-04-01T23:41:47;19.30;;;11.63;;
1128;SDS011;553;51.038;7.216;2023-04-01T23:44:14;17.63;;;11.30;;
1128;SDS011;553;51.038;7.216;2023-04-01T23:46:42;16.13;;;11.23;;
1128;SDS011;553;51.038;7.216;2023-04-01T23:49:13;21.10;;;12.37;;
1128;SDS011;553;51.038;7.216;2023-04-01T23:54:58;19.50;;;11.60;;
1128;SDS011;553;51.038;7.216;2023-04-01T23:57:33;18.70;;;12.17;;
